createdAt,value
2018-07-31T00:00:22.341Z,19.80
2018-07-31T00:01:24.618Z,19.50
2018-07-31T00:02:26.921Z,16.50
2018-07-31T00:03:29.217Z,19.42
2018-07-31T00:04:31.521Z,18.67
2018-07-31T00:05:33.825Z,19.05
2018-07-31T00:06:36.129Z,18.12
2018-07-31T00:07:38.459Z,17.82
2018-07-31T00:08:40.807Z,18.73
2018-07-31T00:09:43.109Z,19.35
2018-07-31T00:10:45.421Z,19.50
2018-07-31T00:11:47.715Z,20.95
2018-07-31T00:12:50.021Z,16.20
2018-07-31T00:13:52.738Z,19.23
2018-07-31T00:14:55.026Z,17.70
2018-07-31T00:15:57.342Z,18.85
2018-07-31T00:16:59.616Z,16.00
2018-07-31T00:18:01.929Z,18.10
2018-07-31T00:19:04.521Z,17.60
2018-07-31T00:20:06.985Z,19.35
2018-07-31T00:21:09.265Z,18.73
2018-07-31T00:22:11.546Z,19.80
2018-07-31T00:23:13.874Z,18.05
2018-07-31T00:24:16.143Z,22.58
2018-07-31T00:25:18.447Z,18.92
2018-07-31T00:26:20.770Z,18.50
2018-07-31T00:27:23.051Z,17.35
2018-07-31T00:28:25.358Z,20.55
2018-07-31T00:29:27.646Z,15.70
2018-07-31T00:30:29.930Z,18.50
2018-07-31T00:31:32.218Z,22.02
2018-07-31T00:32:34.518Z,16.52
2018-07-31T00:33:36.859Z,23.12
2018-07-31T00:34:39.141Z,19.10
2018-07-31T00:35:41.418Z,20.30
2018-07-31T00:36:43.692Z,20.15
2018-07-31T00:37:45.978Z,18.00
2018-07-31T00:38:48.255Z,19.48
2018-07-31T00:39:50.526Z,18.10
2018-07-31T00:40:52.953Z,18.42
2018-07-31T00:41:55.249Z,18.67
2018-07-31T00:42:57.578Z,19.35
2018-07-31T00:43:59.889Z,16.37
2018-07-31T00:45:02.202Z,21.75
2018-07-31T00:46:04.653Z,19.02
2018-07-31T00:47:06.916Z,18.80
2018-07-31T00:48:09.275Z,16.62
2018-07-31T00:49:11.605Z,17.35
2018-07-31T00:50:13.869Z,17.10
2018-07-31T00:51:16.137Z,17.73
2018-07-31T00:52:18.422Z,16.25
2018-07-31T00:53:20.744Z,21.48
2018-07-31T00:54:23.019Z,18.37
2018-07-31T00:55:25.321Z,18.80
2018-07-31T00:56:27.610Z,18.17
2018-07-31T00:57:29.874Z,14.80
2018-07-31T00:58:32.136Z,18.55
2018-07-31T00:59:34.483Z,19.75
2018-07-31T01:00:36.825Z,21.00
2018-07-31T01:01:39.163Z,19.85
2018-07-31T01:02:41.448Z,15.08
2018-07-31T01:03:43.729Z,20.02
2018-07-31T01:04:46.094Z,16.55
2018-07-31T01:05:48.435Z,15.13
2018-07-31T01:06:50.767Z,21.20
2018-07-31T01:07:53.087Z,16.57
2018-07-31T01:08:55.505Z,18.98
2018-07-31T01:09:57.800Z,17.67
2018-07-31T01:11:00.088Z,18.37
2018-07-31T01:12:02.374Z,18.62
2018-07-31T01:13:04.811Z,17.20
2018-07-31T01:14:08.224Z,17.73
2018-07-31T01:15:10.522Z,18.05
2018-07-31T01:16:12.814Z,19.80
2018-07-31T01:17:15.074Z,16.35
2018-07-31T01:18:17.427Z,19.10
2018-07-31T01:19:19.746Z,18.15
2018-07-31T01:20:22.045Z,18.77
2018-07-31T01:21:24.356Z,19.12
2018-07-31T01:22:26.664Z,16.45
2018-07-31T01:23:28.975Z,17.15
2018-07-31T01:24:31.336Z,17.85
2018-07-31T01:25:33.601Z,19.60
2018-07-31T01:26:35.903Z,19.55
2018-07-31T01:27:38.187Z,15.53
2018-07-31T01:28:40.454Z,17.62
2018-07-31T01:29:42.730Z,19.32
2018-07-31T01:30:45.062Z,16.25
2018-07-31T01:31:47.333Z,20.30
2018-07-31T01:32:49.666Z,16.17
2018-07-31T01:33:52.018Z,22.60
2018-07-31T01:34:54.266Z,20.75
2018-07-31T01:35:56.559Z,17.35
2018-07-31T01:36:58.832Z,21.05
2018-07-31T01:38:01.140Z,17.95
2018-07-31T01:39:06.577Z,20.85
2018-07-31T01:40:08.858Z,18.02
2018-07-31T01:41:11.117Z,16.90
2018-07-31T01:42:13.369Z,19.02
2018-07-31T01:43:15.654Z,18.02
2018-07-31T01:44:17.940Z,21.75
2018-07-31T01:45:20.241Z,17.92
2018-07-31T01:46:22.557Z,18.15
2018-07-31T01:47:24.838Z,20.23
2018-07-31T01:48:27.127Z,18.87
2018-07-31T01:49:29.398Z,18.00
2018-07-31T01:50:31.661Z,23.87
2018-07-31T01:51:33.929Z,17.02
2018-07-31T01:52:36.222Z,18.12
2018-07-31T01:53:38.517Z,18.92
2018-07-31T01:54:40.814Z,18.60
2018-07-31T01:55:43.084Z,20.92
2018-07-31T01:56:45.342Z,19.55
2018-07-31T01:57:47.626Z,18.10
2018-07-31T01:58:49.937Z,17.27
2018-07-31T01:59:52.197Z,15.90
2018-07-31T02:00:54.492Z,22.98
2018-07-31T02:01:56.766Z,18.50
2018-07-31T02:02:59.070Z,16.80
2018-07-31T02:04:01.355Z,24.57
2018-07-31T02:05:03.753Z,20.65
2018-07-31T02:06:06.044Z,25.68
2018-07-31T02:07:08.341Z,21.75
2018-07-31T02:08:10.621Z,22.22
2018-07-31T02:09:12.926Z,24.20
2018-07-31T02:10:15.244Z,19.80
2018-07-31T02:11:17.533Z,22.75
2018-07-31T02:12:19.864Z,19.77
2018-07-31T02:13:22.161Z,17.20
2018-07-31T02:14:24.460Z,19.42
2018-07-31T02:15:26.773Z,18.67
2018-07-31T02:16:29.049Z,19.87
2018-07-31T02:17:31.337Z,19.20
2018-07-31T02:18:33.642Z,18.82
2018-07-31T02:19:35.925Z,20.32
2018-07-31T02:20:38.780Z,19.30
2018-07-31T02:21:41.073Z,22.50
2018-07-31T02:22:43.333Z,16.70
2018-07-31T02:23:45.622Z,18.98
2018-07-31T02:24:47.865Z,17.87
2018-07-31T02:25:50.165Z,19.77
2018-07-31T02:26:52.459Z,20.52
2018-07-31T02:27:54.781Z,19.37
2018-07-31T02:28:57.070Z,20.57
2018-07-31T02:30:05.048Z,19.10
2018-07-31T02:31:07.321Z,17.00
2018-07-31T02:32:09.619Z,18.92
2018-07-31T02:33:11.892Z,20.57
2018-07-31T02:34:14.196Z,20.60
2018-07-31T02:35:16.645Z,18.15
2018-07-31T02:36:18.937Z,16.82
2018-07-31T02:37:21.241Z,18.82
2018-07-31T02:38:23.530Z,16.93
2018-07-31T02:39:25.822Z,19.30
2018-07-31T02:40:28.082Z,21.70
2018-07-31T02:41:30.335Z,14.18
2018-07-31T02:42:32.617Z,19.30
2018-07-31T02:43:34.916Z,19.45
2018-07-31T02:44:37.171Z,17.62
2018-07-31T02:45:39.446Z,17.48
2018-07-31T02:46:41.730Z,17.80
2018-07-31T02:47:44.611Z,17.45
2018-07-31T02:48:46.920Z,15.72
2018-07-31T02:49:49.158Z,20.68
2018-07-31T02:50:51.463Z,20.12
2018-07-31T02:51:53.748Z,17.75
2018-07-31T02:52:56.009Z,18.70
2018-07-31T02:53:58.282Z,17.55
2018-07-31T02:55:00.549Z,20.15
2018-07-31T02:56:02.820Z,19.25
2018-07-31T02:57:05.143Z,16.75
2018-07-31T02:58:07.422Z,17.20
2018-07-31T02:59:09.722Z,16.07
2018-07-31T03:00:11.994Z,17.12
2018-07-31T03:01:14.248Z,19.40
2018-07-31T03:02:16.530Z,17.25
2018-07-31T03:03:18.788Z,19.57
2018-07-31T03:04:21.026Z,18.40
2018-07-31T03:05:23.273Z,16.87
2018-07-31T03:06:25.533Z,20.40
2018-07-31T03:07:27.786Z,19.25
2018-07-31T03:08:30.042Z,17.23
2018-07-31T03:09:32.304Z,18.77
2018-07-31T03:10:34.570Z,17.67
2018-07-31T03:11:36.832Z,17.45
2018-07-31T03:12:39.122Z,21.05
2018-07-31T03:13:41.388Z,19.10
2018-07-31T03:14:43.656Z,21.62
2018-07-31T03:15:45.926Z,22.55
2018-07-31T03:16:48.171Z,19.00
2018-07-31T03:17:50.407Z,19.92
2018-07-31T03:18:52.642Z,19.80
2018-07-31T03:19:54.918Z,20.23
2018-07-31T03:20:57.190Z,20.50
2018-07-31T03:21:59.474Z,16.20
2018-07-31T03:23:01.746Z,20.50
2018-07-31T03:24:03.985Z,20.35
2018-07-31T03:25:06.267Z,16.70
2018-07-31T03:26:08.533Z,21.25
2018-07-31T03:27:10.776Z,18.87
2018-07-31T03:28:13.065Z,17.20
2018-07-31T03:29:15.333Z,20.72
2018-07-31T03:30:17.701Z,17.52
2018-07-31T03:31:19.969Z,19.70
2018-07-31T03:32:22.190Z,21.30
2018-07-31T03:33:24.467Z,16.45
2018-07-31T03:34:26.745Z,21.87
2018-07-31T03:35:29.015Z,19.37
2018-07-31T03:36:31.258Z,17.50
2018-07-31T03:37:33.485Z,17.90
2018-07-31T03:38:35.729Z,18.45
2018-07-31T03:39:37.953Z,16.95
2018-07-31T03:40:40.429Z,20.15
2018-07-31T03:41:42.662Z,18.27
2018-07-31T03:42:44.869Z,21.25
2018-07-31T03:43:47.126Z,20.50
2018-07-31T03:44:49.421Z,16.07
2018-07-31T03:45:51.726Z,22.52
2018-07-31T03:46:54.011Z,18.67
2018-07-31T03:47:56.238Z,18.57
2018-07-31T03:48:58.485Z,20.60
2018-07-31T03:50:00.798Z,18.73
2018-07-31T03:51:03.051Z,19.80
2018-07-31T03:52:05.558Z,17.75
2018-07-31T03:53:07.849Z,21.82
2018-07-31T03:54:10.109Z,21.23
2018-07-31T03:55:12.386Z,17.17
2018-07-31T03:56:14.652Z,19.60
2018-07-31T03:57:16.866Z,20.20
2018-07-31T03:58:19.121Z,18.07
2018-07-31T03:59:21.391Z,20.32
2018-07-31T04:00:23.669Z,15.45
2018-07-31T04:01:25.938Z,19.70
2018-07-31T04:02:28.165Z,18.67
2018-07-31T04:03:30.480Z,19.25
2018-07-31T04:04:32.748Z,19.35
2018-07-31T04:05:35.132Z,18.92
2018-07-31T04:06:37.267Z,18.12
2018-07-31T04:07:39.518Z,18.50
2018-07-31T04:08:41.868Z,19.00
2018-07-31T04:09:44.092Z,19.82
2018-07-31T04:10:46.392Z,24.63
2018-07-31T04:11:48.642Z,17.80
2018-07-31T04:12:50.891Z,20.95
2018-07-31T04:13:53.141Z,21.00
2018-07-31T04:14:55.417Z,16.30
2018-07-31T04:15:57.653Z,20.45
2018-07-31T04:16:59.991Z,19.77
2018-07-31T04:18:02.220Z,17.05
2018-07-31T04:19:04.438Z,21.05
2018-07-31T04:20:06.716Z,18.20
2018-07-31T04:21:08.996Z,18.60
2018-07-31T04:22:11.261Z,20.48
2018-07-31T04:23:13.514Z,15.80
2018-07-31T04:24:15.933Z,20.50
2018-07-31T04:25:18.245Z,20.62
2018-07-31T04:26:20.504Z,18.32
2018-07-31T04:27:22.771Z,20.92
2018-07-31T04:28:25.080Z,18.67
2018-07-31T04:29:27.397Z,21.05
2018-07-31T04:30:29.668Z,21.12
2018-07-31T04:31:31.959Z,18.48
2018-07-31T04:32:34.266Z,20.80
2018-07-31T04:33:36.543Z,18.10
2018-07-31T04:34:38.831Z,19.15
2018-07-31T04:35:41.103Z,21.77
2018-07-31T04:36:43.362Z,15.00
2018-07-31T04:37:45.627Z,22.73
2018-07-31T04:38:47.961Z,22.55
2018-07-31T04:39:50.259Z,19.98
2018-07-31T04:40:52.542Z,20.05
2018-07-31T04:41:54.791Z,21.60
2018-07-31T04:42:57.051Z,21.05
2018-07-31T04:43:59.331Z,19.30
2018-07-31T04:45:01.663Z,20.10
2018-07-31T04:46:04.138Z,19.57
2018-07-31T04:47:06.437Z,17.85
2018-07-31T04:48:08.720Z,19.98
2018-07-31T04:49:11.046Z,18.67
2018-07-31T04:50:13.314Z,20.75
2018-07-31T04:51:15.577Z,22.32
2018-07-31T04:52:17.857Z,18.10
2018-07-31T04:53:20.146Z,19.75
2018-07-31T04:54:22.449Z,24.95
2018-07-31T04:55:24.746Z,23.25
2018-07-31T04:56:27.045Z,21.35
2018-07-31T04:57:29.373Z,24.07
2018-07-31T04:58:31.656Z,23.60
2018-07-31T04:59:33.973Z,27.15
2018-07-31T05:00:36.257Z,20.32
2018-07-31T05:01:38.533Z,22.82
2018-07-31T05:02:40.827Z,21.62
2018-07-31T05:03:43.103Z,22.70
2018-07-31T05:04:45.362Z,23.27
2018-07-31T05:05:47.630Z,20.65
2018-07-31T05:06:49.905Z,25.43
2018-07-31T05:07:52.181Z,23.75
2018-07-31T05:08:54.450Z,18.15
2018-07-31T05:09:56.716Z,24.02
2018-07-31T05:10:59.024Z,23.47
2018-07-31T05:12:01.286Z,18.98
2018-07-31T05:13:03.554Z,19.95
2018-07-31T05:14:06.344Z,18.70
2018-07-31T05:15:08.700Z,21.00
2018-07-31T05:16:10.962Z,19.00
2018-07-31T05:17:13.259Z,21.35
2018-07-31T05:18:15.581Z,22.42
2018-07-31T05:19:17.837Z,20.50
2018-07-31T05:20:20.104Z,22.42
2018-07-31T05:21:22.418Z,18.52
2018-07-31T05:22:24.694Z,22.37
2018-07-31T05:23:27.003Z,19.90
2018-07-31T05:24:29.281Z,26.35
2018-07-31T05:25:31.644Z,21.37
2018-07-31T05:26:33.928Z,20.70
2018-07-31T05:27:36.189Z,19.50
2018-07-31T05:28:38.482Z,18.48
2018-07-31T05:29:40.738Z,21.68
2018-07-31T05:30:43.011Z,21.70
2018-07-31T05:31:45.296Z,19.50
2018-07-31T05:32:47.610Z,21.45
2018-07-31T05:33:49.874Z,22.45
2018-07-31T05:34:52.170Z,19.65
2018-07-31T05:35:54.440Z,22.55
2018-07-31T05:36:56.716Z,23.35
2018-07-31T05:37:58.982Z,28.57
2018-07-31T05:39:01.250Z,22.13
2018-07-31T05:40:03.883Z,18.85
2018-07-31T05:41:06.177Z,24.18
2018-07-31T05:42:08.461Z,19.45
2018-07-31T05:43:10.743Z,23.95
2018-07-31T05:44:13.002Z,23.05
2018-07-31T05:45:15.263Z,20.12
2018-07-31T05:46:17.610Z,21.73
2018-07-31T05:47:19.906Z,18.35
2018-07-31T05:48:22.207Z,20.30
2018-07-31T05:49:24.693Z,20.60
2018-07-31T05:50:26.954Z,19.87
2018-07-31T05:51:29.253Z,20.72
2018-07-31T05:52:31.528Z,21.10
2018-07-31T05:53:33.837Z,20.35
2018-07-31T05:54:36.150Z,22.90
2018-07-31T05:55:38.572Z,17.35
2018-07-31T05:56:40.863Z,22.15
2018-07-31T05:57:43.155Z,17.32
2018-07-31T05:58:45.441Z,22.67
2018-07-31T05:59:47.765Z,20.85
2018-07-31T06:00:50.055Z,18.27
2018-07-31T06:01:52.358Z,20.85
2018-07-31T06:02:54.649Z,16.77
2018-07-31T06:03:56.952Z,19.92
2018-07-31T06:04:59.231Z,18.77
2018-07-31T06:06:01.541Z,16.82
2018-07-31T06:07:03.867Z,19.15
2018-07-31T06:08:06.146Z,16.70
2018-07-31T06:09:08.867Z,17.23
2018-07-31T06:10:11.170Z,16.05
2018-07-31T06:11:13.465Z,19.30
2018-07-31T06:12:15.731Z,19.52
2018-07-31T06:13:18.034Z,14.85
2018-07-31T06:14:20.303Z,19.73
2018-07-31T06:15:22.821Z,17.52
2018-07-31T06:16:25.099Z,17.42
2018-07-31T06:17:31.448Z,15.80
2018-07-31T06:18:33.717Z,17.82
2018-07-31T06:19:35.987Z,17.67
2018-07-31T06:20:38.308Z,17.55
2018-07-31T06:21:40.573Z,15.55
2018-07-31T06:22:43.805Z,17.42
2018-07-31T06:23:46.082Z,20.20
2018-07-31T06:24:48.355Z,16.10
2018-07-31T06:25:50.670Z,18.15
2018-07-31T06:26:55.254Z,21.75
2018-07-31T06:28:01.290Z,14.15
2018-07-31T06:29:03.607Z,19.37
2018-07-31T06:30:08.215Z,17.20
2018-07-31T06:31:10.529Z,15.30
2018-07-31T06:32:12.842Z,37.67
2018-07-31T06:33:15.154Z,21.37
2018-07-31T06:34:17.480Z,19.45
2018-07-31T06:35:25.461Z,21.10
2018-07-31T06:36:27.742Z,20.90
2018-07-31T06:37:30.027Z,14.78
2018-07-31T06:38:32.318Z,19.67
2018-07-31T06:39:34.618Z,17.35
2018-07-31T06:40:36.862Z,20.20
2018-07-31T06:41:39.202Z,18.07
2018-07-31T06:42:41.481Z,18.02
2018-07-31T06:43:43.813Z,16.85
2018-07-31T06:44:46.082Z,18.77
2018-07-31T06:45:48.355Z,20.55
2018-07-31T06:46:50.672Z,17.90
2018-07-31T06:47:52.915Z,18.55
2018-07-31T06:48:55.190Z,17.82
2018-07-31T06:49:57.477Z,17.30
2018-07-31T06:50:59.798Z,18.98
2018-07-31T06:52:02.076Z,16.25
2018-07-31T06:53:04.385Z,19.32
2018-07-31T06:54:06.685Z,18.62
2018-07-31T06:55:08.930Z,18.20
2018-07-31T06:56:11.179Z,19.00
2018-07-31T06:57:13.438Z,19.62
2018-07-31T06:58:15.767Z,21.00
2018-07-31T06:59:18.060Z,18.35
2018-07-31T07:00:20.357Z,18.15
2018-07-31T07:01:22.645Z,19.55
2018-07-31T07:02:25.006Z,21.07
2018-07-31T07:03:27.261Z,18.07
2018-07-31T07:04:29.548Z,21.25
2018-07-31T07:05:31.817Z,14.63
2018-07-31T07:06:34.056Z,19.40
2018-07-31T07:07:36.298Z,17.17
2018-07-31T07:08:38.566Z,14.68
2018-07-31T07:09:40.835Z,17.50
2018-07-31T07:10:43.108Z,15.60
2018-07-31T07:11:45.367Z,16.00
2018-07-31T07:12:47.628Z,17.62
2018-07-31T07:13:50.002Z,16.50
2018-07-31T07:14:52.280Z,19.40
2018-07-31T07:15:54.611Z,16.62
2018-07-31T07:16:56.886Z,14.33
2018-07-31T07:17:59.141Z,15.90
2018-07-31T07:19:01.438Z,15.63
2018-07-31T07:20:03.910Z,17.57
2018-07-31T07:21:06.530Z,17.70
2018-07-31T07:22:08.816Z,18.98
2018-07-31T07:23:11.052Z,17.37
2018-07-31T07:24:13.284Z,16.48
2018-07-31T07:25:22.368Z,19.00
2018-07-31T07:26:24.901Z,15.43
2018-07-31T07:27:27.173Z,16.02
2018-07-31T07:28:29.428Z,18.57
2018-07-31T07:29:31.753Z,17.32
2018-07-31T07:30:34.085Z,17.15
2018-07-31T07:31:36.483Z,18.42
2018-07-31T07:32:38.742Z,16.85
2018-07-31T07:33:41.065Z,17.15
2018-07-31T07:34:43.306Z,16.12
2018-07-31T07:35:45.534Z,12.78
2018-07-31T07:36:47.817Z,16.55
2018-07-31T07:37:50.069Z,16.25
2018-07-31T07:38:52.332Z,15.68
2018-07-31T07:39:54.575Z,17.37
2018-07-31T07:40:56.813Z,17.32
2018-07-31T07:41:59.061Z,15.48
2018-07-31T07:43:01.298Z,18.67
2018-07-31T07:44:03.597Z,15.03
2018-07-31T07:45:05.910Z,15.10
2018-07-31T07:46:08.212Z,15.58
2018-07-31T07:47:10.989Z,14.55
2018-07-31T07:48:13.227Z,13.45
2018-07-31T07:49:15.509Z,17.17
2018-07-31T07:50:17.799Z,17.55
2018-07-31T07:51:20.125Z,13.88
2018-07-31T07:52:22.370Z,18.12
2018-07-31T07:53:24.598Z,16.15
2018-07-31T07:54:26.846Z,14.98
2018-07-31T07:55:29.122Z,16.12
2018-07-31T07:56:31.378Z,18.60
2018-07-31T07:57:33.662Z,13.45
2018-07-31T07:58:35.903Z,18.00
2018-07-31T07:59:38.227Z,13.00
2018-07-31T08:00:40.470Z,20.70
2018-07-31T08:01:42.717Z,19.70
2018-07-31T08:02:44.988Z,13.98
2018-07-31T08:03:47.302Z,16.00
2018-07-31T08:04:49.613Z,15.08
2018-07-31T08:05:51.930Z,16.48
2018-07-31T08:06:54.221Z,15.72
2018-07-31T08:07:56.497Z,14.83
2018-07-31T08:08:58.747Z,17.62
2018-07-31T08:10:01.042Z,15.80
2018-07-31T08:11:03.298Z,14.75
2018-07-31T08:12:05.863Z,17.12
2018-07-31T08:13:08.183Z,17.77
2018-07-31T08:14:10.581Z,14.65
2018-07-31T08:15:12.883Z,14.73
2018-07-31T08:16:15.199Z,16.05
2018-07-31T08:17:17.468Z,17.62
2018-07-31T08:18:20.057Z,16.12
2018-07-31T08:19:22.333Z,18.40
2018-07-31T08:20:24.636Z,13.40
2018-07-31T08:21:26.880Z,16.02
2018-07-31T08:22:29.185Z,14.25
2018-07-31T08:23:31.474Z,13.78
2018-07-31T08:24:33.763Z,16.02
2018-07-31T08:25:36.024Z,16.10
2018-07-31T08:26:38.320Z,15.03
2018-07-31T08:27:40.654Z,14.98
2018-07-31T08:28:42.929Z,15.28
2018-07-31T08:29:45.257Z,16.17
2018-07-31T08:30:47.544Z,12.40
2018-07-31T08:31:49.859Z,17.87
2018-07-31T08:32:52.159Z,15.15
2018-07-31T08:33:54.431Z,14.33
2018-07-31T08:34:56.708Z,14.87
2018-07-31T08:35:58.958Z,13.40
2018-07-31T08:37:01.227Z,18.20
2018-07-31T08:38:03.505Z,16.87
2018-07-31T08:39:07.138Z,12.98
2018-07-31T08:40:09.415Z,15.15
2018-07-31T08:41:11.698Z,18.82
2018-07-31T08:42:13.978Z,15.13
2018-07-31T08:43:16.250Z,16.62
2018-07-31T08:44:18.505Z,15.05
2018-07-31T08:45:20.765Z,13.65
2018-07-31T08:46:23.393Z,15.60
2018-07-31T08:47:25.653Z,12.88
2018-07-31T08:48:27.981Z,14.58
2018-07-31T08:49:30.212Z,15.15
2018-07-31T08:50:32.509Z,16.42
2018-07-31T08:51:34.781Z,16.10
2018-07-31T08:52:37.070Z,12.65
2018-07-31T08:53:39.293Z,18.60
2018-07-31T08:54:41.529Z,18.52
2018-07-31T08:55:43.833Z,14.98
2018-07-31T08:56:46.153Z,17.12
2018-07-31T08:57:48.402Z,15.25
2018-07-31T08:58:50.655Z,15.53
2018-07-31T08:59:52.950Z,16.50
2018-07-31T09:00:55.257Z,14.07
2018-07-31T09:01:57.656Z,16.55
2018-07-31T09:02:59.985Z,12.90
2018-07-31T09:04:02.262Z,15.25
2018-07-31T09:05:04.728Z,16.70
2018-07-31T09:06:07.021Z,14.93
2018-07-31T09:07:09.318Z,17.95
2018-07-31T09:08:11.574Z,13.58
2018-07-31T09:09:13.834Z,14.13
2018-07-31T09:10:16.124Z,14.00
2018-07-31T09:11:18.386Z,14.80
2018-07-31T09:12:20.660Z,17.07
2018-07-31T09:13:22.890Z,12.78
2018-07-31T09:14:25.143Z,16.05
2018-07-31T09:15:27.526Z,17.52
2018-07-31T09:16:29.773Z,14.43
2018-07-31T09:17:32.037Z,15.93
2018-07-31T09:18:34.958Z,15.95
2018-07-31T09:19:37.226Z,18.12
2018-07-31T09:20:39.763Z,12.37
2018-07-31T09:21:41.982Z,16.05
2018-07-31T09:22:44.220Z,17.52
2018-07-31T09:23:46.539Z,15.65
2018-07-31T09:24:48.829Z,15.10
2018-07-31T09:25:51.077Z,13.30
2018-07-31T09:26:53.298Z,15.03
2018-07-31T09:27:55.517Z,14.07
2018-07-31T09:28:57.754Z,11.80
2018-07-31T09:29:59.994Z,13.83
2018-07-31T09:31:08.235Z,14.80
2018-07-31T09:32:10.916Z,12.13
2018-07-31T09:33:13.247Z,12.98
2018-07-31T09:34:15.478Z,12.90
2018-07-31T09:35:17.774Z,13.88
2018-07-31T09:36:20.073Z,12.28
2018-07-31T09:37:22.370Z,14.83
2018-07-31T09:38:24.614Z,14.87
2018-07-31T09:39:26.887Z,13.13
2018-07-31T09:40:29.157Z,14.25
2018-07-31T09:41:31.409Z,14.58
2018-07-31T09:42:33.645Z,12.75
2018-07-31T09:43:35.858Z,15.83
2018-07-31T09:44:38.095Z,14.10
2018-07-31T09:45:40.315Z,13.70
2018-07-31T09:46:42.542Z,14.43
2018-07-31T09:47:44.844Z,15.15
2018-07-31T09:48:47.082Z,12.60
2018-07-31T09:49:49.341Z,15.70
2018-07-31T09:50:51.594Z,12.45
2018-07-31T09:51:53.881Z,14.68
2018-07-31T09:52:56.116Z,17.65
2018-07-31T09:53:58.369Z,13.32
2018-07-31T09:55:00.638Z,16.62
2018-07-31T09:56:02.907Z,12.68
2018-07-31T09:57:05.206Z,15.43
2018-07-31T09:58:07.475Z,15.23
2018-07-31T09:59:09.749Z,14.98
2018-07-31T10:00:12.868Z,14.73
2018-07-31T10:01:18.344Z,14.40
2018-07-31T10:02:20.588Z,11.43
2018-07-31T10:03:22.854Z,11.20
2018-07-31T10:04:25.058Z,14.03
2018-07-31T10:05:27.344Z,13.95
2018-07-31T10:06:29.650Z,18.12
2018-07-31T10:07:31.917Z,15.80
2018-07-31T10:08:34.126Z,14.30
2018-07-31T10:09:36.386Z,16.23
2018-07-31T10:10:38.661Z,15.93
2018-07-31T10:11:40.921Z,13.45
2018-07-31T10:12:43.106Z,16.82
2018-07-31T10:13:45.364Z,14.98
2018-07-31T10:14:47.620Z,13.03
2018-07-31T10:15:50.058Z,15.08
2018-07-31T10:16:52.370Z,11.25
2018-07-31T10:17:54.641Z,13.15
2018-07-31T10:18:56.862Z,16.90
2018-07-31T10:19:59.077Z,12.50
2018-07-31T10:21:01.364Z,14.60
2018-07-31T10:22:03.603Z,13.25
2018-07-31T10:23:05.877Z,13.20
2018-07-31T10:24:08.123Z,14.73
2018-07-31T10:25:10.353Z,11.78
2018-07-31T10:26:12.566Z,10.88
2018-07-31T10:27:14.815Z,13.90
2018-07-31T10:28:17.084Z,12.50
2018-07-31T10:29:19.338Z,13.28
2018-07-31T10:30:21.594Z,17.17
2018-07-31T10:31:23.821Z,10.68
2018-07-31T10:32:26.133Z,16.85
2018-07-31T10:33:28.365Z,15.80
2018-07-31T10:34:30.655Z,11.48
2018-07-31T10:35:32.941Z,15.32
2018-07-31T10:36:35.218Z,13.32
2018-07-31T10:37:37.669Z,12.30
2018-07-31T10:38:39.778Z,16.02
2018-07-31T10:39:42.002Z,12.47
2018-07-31T10:40:44.244Z,14.90
2018-07-31T10:41:46.469Z,13.35
2018-07-31T10:42:48.689Z,12.90
2018-07-31T10:43:51.387Z,14.20
2018-07-31T10:44:53.586Z,12.25
2018-07-31T10:45:55.842Z,12.82
2018-07-31T10:46:58.110Z,15.23
2018-07-31T10:48:00.397Z,11.00
2018-07-31T10:49:02.646Z,18.57
2018-07-31T10:50:04.890Z,14.35
2018-07-31T10:51:07.187Z,15.00
2018-07-31T10:52:09.417Z,14.25
2018-07-31T10:53:11.694Z,13.20
2018-07-31T10:54:13.921Z,14.90
2018-07-31T10:55:16.190Z,17.70
2018-07-31T10:56:18.434Z,14.70
2018-07-31T10:57:20.668Z,16.02
2018-07-31T10:58:22.927Z,15.10
2018-07-31T10:59:25.129Z,13.60
2018-07-31T11:00:27.439Z,18.50
2018-07-31T11:01:29.624Z,16.10
2018-07-31T11:02:31.902Z,12.68
2018-07-31T11:03:34.180Z,13.58
2018-07-31T11:04:36.418Z,11.38
2018-07-31T11:05:38.663Z,14.83
2018-07-31T11:06:41.149Z,14.03
2018-07-31T11:07:43.473Z,10.68
2018-07-31T11:08:45.729Z,11.70
2018-07-31T11:09:47.952Z,12.82
2018-07-31T11:10:50.220Z,10.88
2018-07-31T11:11:52.473Z,15.78
2018-07-31T11:12:54.762Z,14.60
2018-07-31T11:13:57.041Z,15.35
2018-07-31T11:14:59.285Z,15.43
2018-07-31T11:16:01.573Z,14.33
2018-07-31T11:17:03.838Z,13.58
2018-07-31T11:18:06.122Z,13.53
2018-07-31T11:19:08.429Z,11.43
2018-07-31T11:20:10.666Z,14.33
2018-07-31T11:21:13.054Z,11.43
2018-07-31T11:22:15.299Z,16.80
2018-07-31T11:23:17.565Z,17.37
2018-07-31T11:24:19.806Z,14.65
2018-07-31T11:25:22.067Z,14.45
2018-07-31T11:26:24.331Z,12.50
2018-07-31T11:27:26.603Z,11.73
2018-07-31T11:28:28.871Z,15.08
2018-07-31T11:29:31.159Z,12.70
2018-07-31T11:30:33.386Z,14.33
2018-07-31T11:31:35.658Z,15.32
2018-07-31T11:32:37.962Z,10.75
2018-07-31T11:33:40.321Z,13.38
2018-07-31T11:34:42.597Z,14.28
2018-07-31T11:35:44.870Z,13.13
2018-07-31T11:36:47.179Z,12.88
2018-07-31T11:37:49.622Z,13.00
2018-07-31T11:38:51.901Z,13.15
2018-07-31T11:39:54.138Z,13.03
2018-07-31T11:40:56.410Z,11.63
2018-07-31T11:41:58.625Z,13.20
2018-07-31T11:43:00.890Z,11.08
2018-07-31T11:44:03.328Z,12.73
2018-07-31T11:45:05.572Z,13.55
2018-07-31T11:46:07.884Z,12.18
2018-07-31T11:47:10.176Z,12.45
2018-07-31T11:48:12.469Z,10.55
2018-07-31T11:49:14.733Z,11.73
2018-07-31T11:50:17.065Z,12.05
2018-07-31T11:51:20.071Z,13.03
2018-07-31T11:52:22.381Z,13.28
2018-07-31T11:53:24.969Z,13.65
2018-07-31T11:54:27.250Z,13.20
2018-07-31T11:55:29.550Z,13.28
2018-07-31T11:56:31.882Z,12.45
2018-07-31T11:57:34.233Z,11.83
2018-07-31T11:58:36.532Z,13.55
2018-07-31T11:59:38.865Z,10.18
2018-07-31T12:00:41.133Z,11.60
2018-07-31T12:01:43.467Z,12.63
2018-07-31T12:02:45.674Z,11.18
2018-07-31T12:03:47.931Z,12.60
2018-07-31T12:04:50.166Z,11.55
2018-07-31T12:05:52.471Z,12.10
2018-07-31T12:06:54.744Z,13.32
2018-07-31T12:07:56.977Z,11.45
2018-07-31T12:08:59.359Z,11.48
2018-07-31T12:10:01.666Z,11.40
2018-07-31T12:11:03.909Z,10.30
2018-07-31T12:12:06.207Z,12.18
2018-07-31T12:13:08.462Z,9.45
2018-07-31T12:14:10.822Z,10.82
2018-07-31T12:15:13.128Z,11.05
2018-07-31T12:16:15.446Z,10.70
2018-07-31T12:17:17.705Z,11.43
2018-07-31T12:18:20.007Z,10.70
2018-07-31T12:19:22.254Z,11.57
2018-07-31T12:20:25.702Z,13.70
2018-07-31T12:21:28.096Z,13.15
2018-07-31T12:22:30.410Z,13.32
2018-07-31T12:23:32.654Z,12.58
2018-07-31T12:24:34.905Z,10.30
2018-07-31T12:25:37.188Z,13.03
2018-07-31T12:26:39.470Z,11.53
2018-07-31T12:27:41.743Z,11.85
2018-07-31T12:28:44.031Z,11.97
2018-07-31T12:29:46.266Z,9.63
2018-07-31T12:30:48.478Z,10.58
2018-07-31T12:31:50.794Z,12.05
2018-07-31T12:32:53.070Z,10.08
2018-07-31T12:33:55.305Z,9.53
2018-07-31T12:34:57.566Z,10.30
2018-07-31T12:35:59.846Z,10.20
2018-07-31T12:37:02.128Z,12.20
2018-07-31T12:38:04.442Z,12.93
2018-07-31T12:39:09.061Z,10.50
2018-07-31T12:40:11.321Z,8.30
2018-07-31T12:41:13.600Z,10.45
2018-07-31T12:42:15.838Z,9.98
2018-07-31T12:43:18.078Z,11.28
2018-07-31T12:44:20.370Z,11.10
2018-07-31T12:45:22.605Z,9.85
2018-07-31T12:46:24.883Z,12.75
2018-07-31T12:47:27.141Z,13.20
2018-07-31T12:48:29.476Z,10.48
2018-07-31T12:49:31.662Z,12.35
2018-07-31T12:50:33.921Z,12.20
2018-07-31T12:51:36.198Z,13.45
2018-07-31T12:52:38.418Z,12.58
2018-07-31T12:53:40.697Z,10.10
2018-07-31T12:54:42.950Z,8.73
2018-07-31T12:55:45.225Z,14.10
2018-07-31T12:56:47.486Z,9.60
2018-07-31T12:57:49.759Z,10.40
2018-07-31T12:58:51.994Z,11.95
2018-07-31T12:59:54.259Z,11.05
2018-07-31T13:00:56.495Z,12.70
2018-07-31T13:01:58.778Z,14.30
2018-07-31T13:03:01.041Z,10.45
2018-07-31T13:04:03.348Z,11.40
2018-07-31T13:05:05.859Z,11.68
2018-07-31T13:06:08.134Z,11.70
2018-07-31T13:07:10.411Z,11.95
2018-07-31T13:08:12.636Z,11.08
2018-07-31T13:09:14.901Z,11.00
2018-07-31T13:10:17.202Z,10.65
2018-07-31T13:11:19.483Z,11.70
2018-07-31T13:12:21.713Z,12.98
2018-07-31T13:13:23.943Z,9.90
2018-07-31T13:14:26.245Z,11.22
2018-07-31T13:15:28.518Z,12.20
2018-07-31T13:16:30.860Z,10.70
2018-07-31T13:17:33.991Z,10.53
2018-07-31T13:18:36.242Z,12.73
2018-07-31T13:19:38.502Z,11.30
2018-07-31T13:20:40.785Z,11.35
2018-07-31T13:21:43.045Z,13.98
2018-07-31T13:22:45.397Z,10.98